weather station
Area: 7197 km2
The highest point: Čupec (819 m.s.l.)
Total stations: 35
Stations online: 31
Stations offline: 4
Current weather
1°C

Meteorological map - weather stations in Jihomoravský

. The meteorological maps show weather information from WARIO weather stations

Weather stations Jihomoravský

 UpdatesNameStatusTemperatureHumidityWind speedWind direction
13.4.2021 18:43Olešnice1.1 °C90.7 %3.0 m/s S
13.4.2021 18:43Archlebov0.8 °C99.0 %2.0 m/s W
13.4.2021 18:43Boskovice2.1 °C86.0 %1.8 m/s W
13.4.2021 18:43Brno - Královo Pole0.7 °C87.3 %2.2 m/s SW
13.4.2021 18:43Brno - Líšeň0.7 °C85.5 %2.7 m/s NE
13.4.2021 18:43Brno - Vinohrady1.0 °C84.0 %4.4 m/s NW
13.4.2021 18:43Brno - Kníničky1.7 °C96.7 %1.0 m/s E
13.4.2021 18:43Býkovice-0.2 °C95.6 %2.7 m/s S
13.4.2021 18:43Bzenec1.1 °C86.4 %0.7 m/s E
1.3.2021 00:00Litobratřice-2.2 °C88.7 %0.0 m/s N
13.4.2021 18:43Dobšice3.7 °C82.7 %2.1 m/s NW
13.4.2021 18:43Holubice2.1 °C82.6 %5.5 m/s N
13.4.2021 18:43Moravany-0.2 °C92.4 %0.0 m/s S
22.3.2021 17:14Dolní Dubňany4.7 °C54.0 %4.7 m/s S
13.4.2021 18:43Brno - Jih1.7 °C86.8 %2.5 m/s S
13.4.2021 18:43Svatobořice1.5 °C94.5 %2.7 m/s NW
13.4.2021 18:43Mikulov1.5 °C77.8 %3.7 m/s NW
13.4.2021 18:43Moravské Bránice1.7 °C90.2 %1.3 m/s E
13.4.2021 18:43Nebovidy0.6 °C81.8 %8.0 m/s SW
13.4.2021 18:43Troubsko1.0 °C85.5 %2.1 m/s NW
13.4.2021 18:43Kravsko0.6 °C89.9 %1.0 m/s W
13.4.2021 18:43Pozořice1.1 °C92.6 %3.9 m/s NE
13.4.2021 18:43Předklášteří1.4 °C89.3 %1.5 m/s E
13.4.2021 18:43Brno - Přízřenice1.9 °C81.5 %4.7 m/s S
25.3.2021 07:44Skalice u Znojma5.0 °C96.5 %0.0 m/s SE
13.4.2021 18:43Šlapanice1.6 °C83.3 %1.9 m/s N
13.4.2021 18:43Němčičky1.0 °C83.1 %0.0 m/s SW
13.4.2021 18:43Veselí nad Moravou1.4 °C93.5 %4.5 m/s N
16.3.2021 15:14Veselí nad Moravou6.3 °C59.2 %0.0 m/s N
13.4.2021 18:43Kněževes Veselka-1.6 °C95.1 %1.9 m/s NW
13.4.2021 18:43Vlasatice2.0 °C86.3 %3.6 m/s SW
13.4.2021 18:43Vrbovec1.4 °C91.7 %1.2 m/s N
13.4.2021 18:43Rájec-Jestřebí0.7 °C98.3 %1.8 m/s NW
13.4.2021 18:43Žarošice0.8 °C90.0 %1.7 m/s N
13.4.2021 18:43Brno - Královo Pole1.5 °C92.3 %3.0 m/s NW
Email notifications
Enter your email address to subscribe to notifications about news at warioweather.com. Your email address will not be used for any purpose other than sending these emails and will not be provided to any third party. The subscription can be ended at any time.
All data are only indicative. The portal administrator has no responsibility for potentially incorrect data and related consequences. Publishing or further sharing of content from www.warioweather.com is only allowed with written consent from WANET s.r.o.